createdAt,value
2023-05-01T00:00:21.780Z,49.98
2023-05-01T00:10:53.874Z,50.22
2023-05-01T00:21:19.497Z,50.35
2023-05-01T00:31:45.983Z,50.24
2023-05-01T00:42:11.579Z,50.66
2023-05-01T00:52:37.380Z,50.81
2023-05-01T01:03:04.602Z,51.13
2023-05-01T01:13:36.384Z,51.25
2023-05-01T01:24:26.555Z,51.30
2023-05-01T01:34:55.277Z,51.33
2023-05-01T01:45:25.034Z,51.61
2023-05-01T01:55:53.327Z,51.81
2023-05-01T02:06:20.697Z,51.86
2023-05-01T02:16:48.531Z,51.84
2023-05-01T02:27:17.658Z,51.44
2023-05-01T02:37:44.395Z,51.51
2023-05-01T02:48:15.050Z,51.55
2023-05-01T02:58:50.734Z,51.45
2023-05-01T03:09:16.447Z,51.37
2023-05-01T03:19:42.874Z,51.71
2023-05-01T03:30:10.719Z,51.83
2023-05-01T03:40:35.994Z,52.25
2023-05-01T03:51:01.629Z,52.82
2023-05-01T04:01:27.646Z,53.17
2023-05-01T04:11:53.648Z,53.27
2023-05-01T04:22:20.039Z,53.43
2023-05-01T04:32:45.790Z,53.99
2023-05-01T04:43:11.485Z,54.38
2023-05-01T04:53:37.350Z,54.78
2023-05-01T05:04:03.721Z,55.51
2023-05-01T05:14:30.003Z,56.31
2023-05-01T05:25:00.374Z,56.18
2023-05-01T05:35:26.215Z,56.01
2023-05-01T05:45:52.142Z,54.40
2023-05-01T05:56:18.074Z,51.78
2023-05-01T06:06:44.118Z,50.61
2023-05-01T06:17:10.043Z,48.81
2023-05-01T06:27:35.850Z,46.48
2023-05-01T06:38:02.973Z,44.85
2023-05-01T06:48:29.826Z,42.51
2023-05-01T06:58:55.977Z,40.73
2023-05-01T07:09:22.520Z,39.71
2023-05-01T07:19:48.384Z,38.49
2023-05-01T07:30:15.127Z,37.11
2023-05-01T07:40:41.182Z,36.65
2023-05-01T07:51:07.805Z,35.63
2023-05-01T08:01:35.073Z,34.29
2023-05-01T08:12:02.118Z,34.88
2023-05-01T08:22:27.892Z,34.15
2023-05-01T08:32:53.607Z,33.79
2023-05-01T08:43:20.122Z,33.18
2023-05-01T08:53:47.971Z,33.10
2023-05-01T09:04:14.502Z,32.89
2023-05-01T09:14:40.864Z,33.09
2023-05-01T09:25:07.606Z,33.04
2023-05-01T09:35:34.322Z,33.30
2023-05-01T09:46:09.655Z,33.40
2023-05-01T09:56:47.195Z,34.02
2023-05-01T10:07:14.639Z,33.76
2023-05-01T10:17:41.773Z,34.48
2023-05-01T10:28:09.992Z,35.44
2023-05-01T10:38:37.865Z,34.98
2023-05-01T10:49:04.249Z,35.79
2023-05-01T10:59:50.367Z,37.16
2023-05-01T11:10:29.904Z,36.39
2023-05-01T11:20:55.442Z,36.42
2023-05-01T11:31:22.021Z,36.27
2023-05-01T11:41:48.604Z,35.63
2023-05-01T11:52:14.760Z,35.90
2023-05-01T12:02:40.869Z,35.81
2023-05-01T12:13:07.436Z,35.41
2023-05-01T12:23:37.562Z,34.86
2023-05-01T12:34:06.167Z,34.94
2023-05-01T12:44:32.581Z,34.89
2023-05-01T12:55:05.530Z,34.20
2023-05-01T13:05:31.550Z,34.39
2023-05-01T13:16:07.172Z,34.51
2023-05-01T13:26:36.171Z,34.21
2023-05-01T13:37:03.789Z,34.10
2023-05-01T13:47:29.670Z,33.61
2023-05-01T13:57:55.840Z,33.96
2023-05-01T14:08:26.107Z,33.35
2023-05-01T14:18:54.589Z,32.66
2023-05-01T14:29:27.295Z,32.29
2023-05-01T14:39:53.188Z,32.84
2023-05-01T14:50:22.353Z,32.74
2023-05-01T15:00:48.170Z,32.54
2023-05-01T15:11:15.569Z,32.19
2023-05-01T15:21:41.466Z,31.93
2023-05-01T15:32:12.388Z,31.32
2023-05-01T15:42:40.255Z,31.24
2023-05-01T15:53:05.733Z,31.13
2023-05-01T16:03:32.520Z,31.05
2023-05-01T16:13:58.526Z,30.99
2023-05-01T16:24:24.376Z,30.83
2023-05-01T16:34:50.228Z,30.84
2023-05-01T16:45:15.940Z,30.62
2023-05-01T16:55:41.967Z,30.99
2023-05-01T17:06:08.425Z,31.39
2023-05-01T17:16:35.333Z,31.58
2023-05-01T17:27:01.069Z,31.95
2023-05-01T17:37:27.041Z,31.99
2023-05-01T17:47:53.943Z,32.38
2023-05-01T17:58:20.673Z,32.69
2023-05-01T18:08:46.435Z,32.95
2023-05-01T18:19:12.317Z,33.33
2023-05-01T18:29:39.236Z,33.48
2023-05-01T18:40:05.888Z,33.93
2023-05-01T18:50:31.451Z,34.01
2023-05-01T19:00:57.378Z,34.35
2023-05-01T19:11:23.602Z,34.86
2023-05-01T19:21:51.050Z,34.83
2023-05-01T19:32:17.753Z,35.34
2023-05-01T19:42:43.682Z,35.94
2023-05-01T19:53:10.154Z,37.84
2023-05-01T20:03:36.041Z,37.91
2023-05-01T20:14:03.629Z,38.21
2023-05-01T20:24:29.094Z,39.29
2023-05-01T20:34:55.600Z,40.78
2023-05-01T20:45:21.397Z,41.31
2023-05-01T20:55:47.961Z,42.22
2023-05-01T21:06:16.323Z,42.92
2023-05-01T21:16:42.286Z,42.99
2023-05-01T21:27:10.396Z,43.46
2023-05-01T21:48:21.305Z,44.35
2023-05-01T21:58:46.995Z,45.13
2023-05-01T22:09:12.625Z,45.35
2023-05-01T22:19:39.041Z,45.79
2023-05-01T22:30:06.168Z,45.54
2023-05-01T22:40:32.154Z,45.65
2023-05-01T22:50:57.582Z,46.62
2023-05-01T23:01:23.824Z,46.79
2023-05-01T23:11:50.165Z,46.88
2023-05-01T23:22:16.155Z,46.98
2023-05-01T23:32:42.637Z,47.44
2023-05-01T23:43:08.436Z,48.02
2023-05-01T23:53:34.410Z,48.41
